createdAt,value
2018-09-14T00:00:28.333Z,95661.83
2018-09-14T00:05:33.173Z,95662.58
2018-09-14T00:10:38.530Z,95666.48
2018-09-14T00:13:08.542Z,95668.91
2018-09-14T00:15:37.592Z,95671.28
2018-09-14T00:18:06.660Z,95671.33
2018-09-14T00:20:35.935Z,95672.45
2018-09-14T00:23:05.930Z,95677.87
2018-09-14T00:25:35.012Z,95676.30
2018-09-14T00:28:03.636Z,95676.44
2018-09-14T00:30:32.163Z,95682.44
2018-09-14T00:33:00.689Z,95680.73
2018-09-14T00:35:29.211Z,95678.61
2018-09-14T00:37:57.734Z,95684.61
2018-09-14T00:40:26.261Z,95679.37
2018-09-14T00:42:56.716Z,95674.19
2018-09-14T00:45:25.232Z,95675.33
2018-09-14T00:47:56.757Z,95674.40
2018-09-14T00:50:25.278Z,95674.28
2018-09-14T00:52:53.818Z,95672.59
2018-09-14T00:55:22.351Z,95679.73
2018-09-14T00:57:54.802Z,95673.91
2018-09-14T01:00:23.326Z,95673.58
2018-09-14T01:02:55.247Z,95673.09
2018-09-14T01:05:23.779Z,95667.72
2018-09-14T01:07:55.896Z,95671.37
2018-09-14T01:10:24.420Z,95669.81
2018-09-14T01:12:52.944Z,95669.77
2018-09-14T01:15:23.403Z,95667.34
2018-09-14T01:17:51.920Z,95674.33
2018-09-14T01:20:27.444Z,95675.40
2018-09-14T01:22:55.963Z,95669.33
2018-09-14T01:25:24.496Z,95675.36
2018-09-14T01:28:00.580Z,95678.03
2018-09-14T01:30:29.146Z,95683.14
2018-09-14T01:32:57.678Z,95678.20
2018-09-14T01:35:45.430Z,95680.25
2018-09-14T01:38:14.905Z,95679.87
2018-09-14T01:40:43.438Z,95680.20
2018-09-14T01:43:12.030Z,95679.27
2018-09-14T01:45:43.712Z,95681.85
2018-09-14T01:48:12.255Z,95682.94
2018-09-14T01:50:56.005Z,95678.72
2018-09-14T01:53:34.249Z,95679.25
2018-09-14T01:56:02.783Z,95679.63
2018-09-14T01:58:31.327Z,95679.50
2018-09-14T02:00:59.844Z,95680.64
2018-09-14T02:03:37.382Z,95682.56
2018-09-14T02:06:05.993Z,95683.19
2018-09-14T02:08:34.504Z,95684.23
2018-09-14T02:14:12.388Z,95685.42
2018-09-14T02:16:41.001Z,95682.71
2018-09-14T02:19:09.568Z,95681.59
2018-09-14T02:21:38.099Z,95681.78
2018-09-14T02:24:15.730Z,95686.05
2018-09-14T02:26:44.266Z,95683.91
2018-09-14T02:29:20.371Z,95686.83
2018-09-14T02:31:48.910Z,95693.16
2018-09-14T02:34:24.820Z,95693.14
2018-09-14T02:36:53.355Z,95692.08
2018-09-14T02:39:22.815Z,95693.98
2018-09-14T02:41:52.319Z,95697.05
2018-09-14T02:44:20.855Z,95702.85
2018-09-14T02:47:05.207Z,95696.63
2018-09-14T02:49:41.311Z,95699.55
2018-09-14T02:52:09.828Z,95701.77
2018-09-14T02:54:38.384Z,95705.29
2018-09-14T02:57:20.445Z,95704.20
2018-09-14T02:59:54.491Z,95705.36
2018-09-14T03:02:23.021Z,95706.39
2018-09-14T03:04:51.545Z,95709.23
2018-09-14T03:07:20.066Z,95704.48
2018-09-14T03:09:48.603Z,95705.20
2018-09-14T03:12:17.139Z,95708.80
2018-09-14T03:14:55.141Z,95708.88
2018-09-14T03:17:23.667Z,95706.64
2018-09-14T03:20:04.698Z,95708.05
2018-09-14T03:22:33.269Z,95711.42
2018-09-14T03:25:01.798Z,95706.07
2018-09-14T03:27:31.279Z,95703.95
2018-09-14T03:30:30.432Z,95704.80
2018-09-14T03:32:58.971Z,95700.77
2018-09-14T03:35:40.388Z,95699.98
2018-09-14T03:38:09.905Z,95704.59
2018-09-14T03:40:43.877Z,95704.92
2018-09-14T03:43:13.358Z,95700.58
2018-09-14T03:45:46.247Z,95703.04
2018-09-14T03:48:16.824Z,95701.92
2018-09-14T03:50:56.745Z,95701.66
2018-09-14T03:53:25.267Z,95704.25
2018-09-14T03:56:04.244Z,95705.58
2018-09-14T03:58:32.780Z,95702.45
2018-09-14T04:01:09.708Z,95705.81
2018-09-14T04:03:46.484Z,95706.78
2018-09-14T04:06:15.015Z,95708.13
2018-09-14T04:08:43.539Z,95705.13
2018-09-14T04:11:15.836Z,95705.06
2018-09-14T04:13:44.345Z,95700.92
2018-09-14T04:16:12.898Z,95700.64
2018-09-14T04:18:41.421Z,95701.50
2018-09-14T04:21:09.948Z,95706.92
2018-09-14T04:23:42.581Z,95708.17
2018-09-14T04:26:11.028Z,95704.61
2018-09-14T04:28:39.569Z,95701.22
2018-09-14T04:31:08.100Z,95699.96
2018-09-14T04:33:36.630Z,95703.22
2018-09-14T04:36:12.262Z,95704.43
2018-09-14T04:38:50.767Z,95704.69
2018-09-14T04:41:32.378Z,95707.88
2018-09-14T04:44:00.924Z,95709.97
2018-09-14T04:46:29.458Z,95711.09
2018-09-14T04:49:05.794Z,95711.97
2018-09-14T04:51:34.323Z,95720.59
2018-09-14T04:54:03.792Z,95723.59
2018-09-14T04:56:34.316Z,95725.41
2018-09-14T04:59:02.869Z,95723.66
2018-09-14T05:01:48.240Z,95729.11
2018-09-14T05:04:16.768Z,95729.25
2018-09-14T05:06:45.298Z,95731.70
2018-09-14T05:09:13.848Z,95732.87
2018-09-14T05:11:42.428Z,95732.02
2018-09-14T05:14:11.005Z,95733.13
2018-09-14T05:16:39.480Z,95734.98
2018-09-14T05:19:08.016Z,95733.68
2018-09-14T05:21:36.548Z,95737.62
2018-09-14T05:24:05.142Z,95733.56
2018-09-14T05:26:33.615Z,95737.23
2018-09-14T05:29:04.051Z,95738.88
2018-09-14T05:31:37.150Z,95744.02
2018-09-14T05:34:05.699Z,95743.40
2018-09-14T05:36:34.232Z,95742.36
2018-09-14T05:39:02.826Z,95748.48
2018-09-14T05:41:35.311Z,95748.55
2018-09-14T05:44:03.823Z,95750.13
2018-09-14T05:46:32.369Z,95751.84
2018-09-14T05:49:00.897Z,95754.20
2018-09-14T05:51:29.423Z,95754.02
2018-09-14T05:54:10.779Z,95759.22
2018-09-14T05:56:47.744Z,95766.95
2018-09-14T05:59:22.933Z,95763.39
2018-09-14T06:01:59.122Z,95764.78
2018-09-14T06:04:28.312Z,95768.66
2018-09-14T06:06:56.855Z,95770.39
2018-09-14T06:09:42.633Z,95766.97
2018-09-14T06:12:29.699Z,95770.11
2018-09-14T06:15:12.412Z,95769.14
2018-09-14T06:17:40.934Z,95774.31
2018-09-14T06:20:09.473Z,95778.00
2018-09-14T06:22:48.102Z,95775.92
2018-09-14T06:25:51.545Z,95769.84
2018-09-14T06:28:21.078Z,95767.86
2018-09-14T06:31:04.564Z,95773.88
2018-09-14T06:33:50.581Z,95782.75
2018-09-14T06:36:19.105Z,95779.34
2018-09-14T06:38:47.641Z,95778.70
2018-09-14T06:41:20.922Z,95783.68
2018-09-14T06:43:49.464Z,95785.50
2018-09-14T06:46:18.060Z,95783.22
2018-09-14T06:48:46.554Z,95789.05
2018-09-14T06:51:15.083Z,95790.70
2018-09-14T06:53:43.607Z,95789.41
2018-09-14T06:56:13.112Z,95793.48
2018-09-14T06:58:41.627Z,95794.88
2018-09-14T07:01:11.112Z,95808.17
2018-09-14T07:03:41.640Z,95799.69
2018-09-14T07:06:10.153Z,95792.47
2018-09-14T07:08:47.305Z,95790.98
2018-09-14T07:11:16.742Z,95790.00
2018-09-14T07:13:45.309Z,95788.15
2018-09-14T07:16:21.647Z,95792.84
2018-09-14T07:18:50.237Z,95788.91
2018-09-14T07:21:18.761Z,95789.02
2018-09-14T07:23:48.246Z,95794.43
2018-09-14T07:26:16.799Z,95799.03
2018-09-14T07:28:45.376Z,95800.05
2018-09-14T07:31:13.869Z,95805.09
2018-09-14T07:33:46.000Z,95808.37
2018-09-14T07:36:14.634Z,95813.46
2018-09-14T07:38:43.160Z,95815.13
2018-09-14T07:41:11.701Z,95818.55
2018-09-14T07:43:43.380Z,95819.34
2018-09-14T07:46:11.870Z,95820.78
2018-09-14T07:48:41.412Z,95820.95
2018-09-14T07:51:09.936Z,95828.75
2018-09-14T07:53:38.486Z,95826.06
2018-09-14T07:56:07.028Z,95827.07
2018-09-14T07:58:35.578Z,95829.30
2018-09-14T08:01:12.773Z,95831.09
2018-09-14T08:04:06.024Z,95834.13
2018-09-14T08:07:02.512Z,95831.75
2018-09-14T08:09:31.048Z,95836.52
2018-09-14T08:12:04.526Z,95839.43
2018-09-14T08:14:33.053Z,95847.78
2018-09-14T08:17:08.935Z,95843.16
2018-09-14T08:19:41.682Z,95845.48
2018-09-14T08:22:13.374Z,95849.80
2018-09-14T08:24:41.913Z,95846.41
2018-09-14T08:27:15.090Z,95847.55
2018-09-14T08:29:43.603Z,95847.16
2018-09-14T08:32:19.539Z,95847.95
2018-09-14T08:34:48.008Z,95844.98
2018-09-14T08:37:16.548Z,95846.12
2018-09-14T08:39:45.130Z,95850.02
2018-09-14T08:42:15.610Z,95849.30
2018-09-14T08:44:44.244Z,95852.84
2018-09-14T08:47:12.780Z,95855.08
2018-09-14T08:49:43.296Z,95853.30
2018-09-14T08:52:11.832Z,95856.94
2018-09-14T08:54:41.305Z,95852.47
2018-09-14T08:57:09.845Z,95850.94
2018-09-14T08:59:39.383Z,95856.37
2018-09-14T09:02:07.929Z,95852.90
2018-09-14T09:04:36.457Z,95851.20
2018-09-14T09:07:08.540Z,95855.94
2018-09-14T09:09:37.047Z,95859.13
2018-09-14T09:12:06.504Z,95857.13
2018-09-14T09:14:35.036Z,95855.05
2018-09-14T09:17:12.301Z,95855.89
2018-09-14T09:19:40.842Z,95863.52
2018-09-14T09:22:11.317Z,95859.05
2018-09-14T09:24:39.889Z,95855.00
2018-09-14T09:27:09.417Z,95854.78
2018-09-14T09:29:45.960Z,95854.12
2018-09-14T09:32:26.756Z,95856.97
2018-09-14T09:34:56.286Z,95855.72
2018-09-14T09:37:24.844Z,95855.66
2018-09-14T09:39:56.907Z,95853.72
2018-09-14T09:42:28.659Z,95851.31
2018-09-14T09:44:57.191Z,95849.06
2018-09-14T09:47:25.701Z,95847.72
2018-09-14T09:49:55.153Z,95851.88
2018-09-14T09:52:23.710Z,95848.86
2018-09-14T09:54:56.324Z,95847.89
2018-09-14T09:57:25.834Z,95844.92
2018-09-14T09:59:57.797Z,95846.35
2018-09-14T10:02:26.335Z,95845.78
2018-09-14T10:04:54.852Z,95845.38
2018-09-14T10:07:23.373Z,95839.23
2018-09-14T10:09:51.924Z,95843.97
2018-09-14T10:12:20.479Z,95848.05
2018-09-14T10:14:49.016Z,95847.60
2018-09-14T10:17:17.537Z,95841.66
2018-09-14T10:19:46.063Z,95841.61
2018-09-14T10:22:18.476Z,95843.09
2018-09-14T10:24:46.999Z,95848.44
2018-09-14T10:27:20.859Z,95845.33
2018-09-14T10:29:49.394Z,95849.92
2018-09-14T10:32:18.856Z,95851.72
2018-09-14T10:34:49.371Z,95851.40
2018-09-14T10:37:17.904Z,95851.96
2018-09-14T10:39:46.427Z,95855.19
2018-09-14T10:42:14.975Z,95855.80
2018-09-14T10:44:45.492Z,95851.45
2018-09-14T10:47:14.029Z,95848.39
2018-09-14T10:49:46.881Z,95854.83
2018-09-14T10:52:15.463Z,95854.42
2018-09-14T10:54:44.029Z,95854.12
2018-09-14T10:57:12.517Z,95849.02
2018-09-14T10:59:46.407Z,95846.84
2018-09-14T11:02:20.242Z,95846.36
2018-09-14T11:04:48.768Z,95844.45
2018-09-14T11:07:17.295Z,95835.44
2018-09-14T11:09:45.823Z,95838.05
2018-09-14T11:12:28.149Z,95836.30
2018-09-14T11:14:56.662Z,95837.94
2018-09-14T11:17:25.187Z,95838.06
2018-09-14T11:19:53.826Z,95839.31
2018-09-14T11:22:22.335Z,95838.34
2018-09-14T11:24:51.094Z,95842.36
2018-09-14T11:27:19.417Z,95835.25
2018-09-14T11:29:47.945Z,95832.83
2018-09-14T11:32:16.505Z,95823.31
2018-09-14T11:34:45.009Z,95828.73
2018-09-14T11:37:13.534Z,95828.02
2018-09-14T11:39:42.058Z,95828.25
2018-09-14T11:42:10.596Z,95823.14
2018-09-14T11:44:50.876Z,95822.01
2018-09-14T11:47:19.403Z,95818.25
2018-09-14T11:49:47.935Z,95815.73
2018-09-14T11:52:16.459Z,95815.24
2018-09-14T11:54:44.974Z,95818.00
2018-09-14T11:57:13.532Z,95812.91
2018-09-14T11:59:42.050Z,95811.00
2018-09-14T12:02:10.599Z,95805.55
2018-09-14T12:04:42.619Z,95800.45
2018-09-14T12:07:11.145Z,95798.64
2018-09-14T12:09:43.216Z,95796.50
2018-09-14T12:12:11.745Z,95793.80
2018-09-14T12:14:40.318Z,95786.03
2018-09-14T12:17:08.841Z,95784.81
2018-09-14T12:19:37.363Z,95781.70
2018-09-14T12:22:05.899Z,95788.14
2018-09-14T12:24:39.744Z,95790.56
2018-09-14T12:27:08.278Z,95785.47
2018-09-14T12:29:36.797Z,95784.63
2018-09-14T12:32:05.325Z,95783.53
2018-09-14T12:34:33.844Z,95783.31
2018-09-14T12:37:03.349Z,95775.19
2018-09-14T12:39:31.899Z,95769.17
2018-09-14T12:42:02.498Z,95770.92
2018-09-14T12:44:31.032Z,95775.90
2018-09-14T12:47:01.550Z,95777.12
2018-09-14T12:49:30.080Z,95765.84
2018-09-14T12:51:58.618Z,95768.03
2018-09-14T12:54:27.136Z,95779.77
2018-09-14T12:56:55.665Z,95775.73
2018-09-14T12:59:24.189Z,95781.35
2018-09-14T13:01:57.268Z,95778.59
2018-09-14T13:04:25.884Z,95773.59
2018-09-14T13:06:54.310Z,95765.67
2018-09-14T13:09:22.856Z,95766.91
2018-09-14T13:11:51.375Z,95760.97
2018-09-14T13:14:19.989Z,95759.39
2018-09-14T13:16:48.676Z,95762.92
2018-09-14T13:19:18.205Z,95754.71
2018-09-14T13:21:46.727Z,95755.70
2018-09-14T13:24:15.310Z,95749.24
2018-09-14T13:26:52.684Z,95748.49
2018-09-14T13:29:21.222Z,95747.79
2018-09-14T13:31:49.759Z,95748.32
2018-09-14T13:34:18.283Z,95745.80
2018-09-14T13:36:46.957Z,95751.04
2018-09-14T13:39:15.452Z,95745.70
2018-09-14T13:41:52.072Z,95743.33
2018-09-14T13:44:20.600Z,95738.01
2018-09-14T13:46:49.208Z,95744.20
2018-09-14T13:49:18.708Z,95746.19
2018-09-14T13:52:06.708Z,95738.91
2018-09-14T13:54:43.565Z,95735.98
2018-09-14T13:57:12.088Z,95736.01
2018-09-14T13:59:40.633Z,95743.75
2018-09-14T14:02:09.208Z,95744.13
2018-09-14T14:04:38.653Z,95742.98
2018-09-14T14:07:07.217Z,95740.36
2018-09-14T14:09:35.963Z,95738.52
2018-09-14T14:12:04.437Z,95736.03
2018-09-14T14:14:32.960Z,95742.48
2018-09-14T14:17:05.372Z,95741.77
2018-09-14T14:19:33.816Z,95742.28
2018-09-14T14:22:02.345Z,95738.56
2018-09-14T14:24:30.869Z,95732.48
2018-09-14T14:26:59.417Z,95733.90
2018-09-14T14:29:34.959Z,95733.73
2018-09-14T14:32:04.479Z,95734.09
2018-09-14T14:34:32.999Z,95730.05
2018-09-14T14:37:09.047Z,95728.16
2018-09-14T14:39:40.768Z,95729.57
2018-09-14T14:42:11.273Z,95730.80
2018-09-14T14:44:39.926Z,95730.09
2018-09-14T14:47:08.369Z,95726.22
2018-09-14T14:49:36.916Z,95724.00
2018-09-14T14:52:07.507Z,95725.72
2018-09-14T14:54:36.069Z,95724.30
2018-09-14T14:57:04.609Z,95721.29
2018-09-14T14:59:33.195Z,95720.38
2018-09-14T15:02:01.692Z,95720.81
2018-09-14T15:04:30.225Z,95717.23
2018-09-14T15:06:58.784Z,95710.23
2018-09-14T15:09:28.224Z,95707.77
2018-09-14T15:11:56.798Z,95710.97
2018-09-14T15:14:25.331Z,95706.77
2018-09-14T15:16:53.865Z,95698.88
2018-09-14T15:19:22.513Z,95702.03
2018-09-14T15:21:51.024Z,95699.26
2018-09-14T15:24:21.541Z,95695.90
2018-09-14T15:26:52.047Z,95696.23
2018-09-14T15:29:20.583Z,95693.23
2018-09-14T15:31:51.036Z,95691.12
2018-09-14T15:34:19.575Z,95698.84
2018-09-14T15:36:48.096Z,95698.00
2018-09-14T15:39:16.638Z,95693.31
2018-09-14T15:41:45.229Z,95690.83
2018-09-14T15:44:13.738Z,95687.89
2018-09-14T15:46:43.212Z,95691.88
2018-09-14T15:49:11.799Z,95691.83
2018-09-14T15:51:41.335Z,95703.93
2018-09-14T15:54:13.475Z,95707.72
2018-09-14T15:56:42.012Z,95701.72
2018-09-14T15:59:10.527Z,95700.53
2018-09-14T16:01:39.083Z,95699.81
2018-09-14T16:04:07.623Z,95702.11
2018-09-14T16:06:36.179Z,95707.12
2018-09-14T16:09:05.896Z,95703.37
2018-09-14T16:11:34.403Z,95704.02
2018-09-14T16:14:02.927Z,95698.29
2018-09-14T16:16:35.875Z,95707.63
2018-09-14T16:19:04.456Z,95708.07
2018-09-14T16:21:33.898Z,95714.55
2018-09-14T16:24:03.400Z,95711.55
2018-09-14T16:26:31.927Z,95712.14
2018-09-14T16:29:00.539Z,95712.59
2018-09-14T16:31:29.068Z,95711.32
2018-09-14T16:33:57.608Z,95710.75
2018-09-14T16:36:27.137Z,95711.49
2018-09-14T16:38:55.654Z,95712.83
2018-09-14T16:41:26.191Z,95715.16
2018-09-14T16:43:54.715Z,95720.14
2018-09-14T16:46:25.181Z,95720.42
2018-09-14T16:48:53.753Z,95723.63
2018-09-14T16:51:22.284Z,95722.64
2018-09-14T16:53:51.749Z,95727.39
2018-09-14T16:56:20.319Z,95729.52
2018-09-14T16:58:49.183Z,95730.23
2018-09-14T17:01:19.717Z,95732.53
2018-09-14T17:03:48.198Z,95731.87
2018-09-14T17:06:16.793Z,95733.48
2018-09-14T17:08:48.696Z,95736.91
2018-09-14T17:11:17.224Z,95740.98
2018-09-14T17:13:50.196Z,95739.09
2018-09-14T17:16:18.720Z,95738.63
2018-09-14T17:18:47.264Z,95736.02
2018-09-14T17:21:17.830Z,95739.91
2018-09-14T17:23:46.319Z,95744.25
2018-09-14T17:26:21.917Z,95747.47
2018-09-14T17:28:50.439Z,95750.70
2018-09-14T17:31:19.911Z,95751.32
2018-09-14T17:33:48.506Z,95751.55
2018-09-14T17:36:25.084Z,95754.00
2018-09-14T17:38:53.600Z,95753.23
2018-09-14T17:41:35.216Z,95744.52
2018-09-14T17:44:05.805Z,95742.09
2018-09-14T17:46:34.367Z,95740.69
2018-09-14T17:49:06.416Z,95744.88
2018-09-14T17:51:34.958Z,95746.83
2018-09-14T17:54:06.887Z,95750.19
2018-09-14T17:56:35.414Z,95748.92
2018-09-14T17:59:07.452Z,95749.13
2018-09-14T18:01:35.973Z,95745.91
2018-09-14T18:04:04.519Z,95743.98
2018-09-14T18:06:33.055Z,95747.13
2018-09-14T18:09:01.581Z,95744.54
2018-09-14T18:11:30.116Z,95745.14
2018-09-14T18:13:59.583Z,95746.94
2018-09-14T18:16:28.185Z,95755.34
2018-09-14T18:18:56.652Z,95760.07
2018-09-14T18:21:25.329Z,95768.57
2018-09-14T18:23:53.830Z,95778.61
2018-09-14T18:26:22.365Z,95780.48
2018-09-14T18:28:50.908Z,95783.10
2018-09-14T18:31:19.435Z,95789.53
2018-09-14T18:33:52.193Z,95791.73
2018-09-14T18:36:20.734Z,95794.08
2018-09-14T18:38:50.354Z,95797.64
2018-09-14T18:41:20.814Z,95803.58
2018-09-14T18:43:50.332Z,95802.65
2018-09-14T18:46:20.853Z,95803.66
2018-09-14T18:48:49.383Z,95801.33
2018-09-14T18:51:17.937Z,95808.40
2018-09-14T18:53:46.495Z,95812.33
2018-09-14T18:56:15.011Z,95811.45
2018-09-14T18:58:43.576Z,95808.86
2018-09-14T19:01:14.038Z,95809.02
2018-09-14T19:03:42.571Z,95810.97
2018-09-14T19:06:12.160Z,95814.25
2018-09-14T19:08:42.692Z,95810.11
2018-09-14T19:11:12.124Z,95811.48
2018-09-14T19:13:41.679Z,95809.28
2018-09-14T19:16:10.232Z,95810.79
2018-09-14T19:18:38.751Z,95814.45
2018-09-14T19:21:07.276Z,95817.40
2018-09-14T19:23:35.820Z,95821.25
2018-09-14T19:26:04.360Z,95824.36
2018-09-14T19:28:32.887Z,95822.30
2018-09-14T19:31:02.403Z,95819.81
2018-09-14T19:33:33.035Z,95819.72
2018-09-14T19:36:03.483Z,95815.80
2018-09-14T19:38:32.063Z,95816.66
2018-09-14T19:41:00.580Z,95810.69
2018-09-14T19:43:29.119Z,95805.03
2018-09-14T19:45:57.649Z,95797.86
2018-09-14T19:48:26.180Z,95805.61
2018-09-14T19:50:54.719Z,95814.63
2018-09-14T19:53:23.281Z,95823.23
2018-09-14T19:55:52.044Z,95830.00
2018-09-14T19:58:20.579Z,95832.10
2018-09-14T20:00:49.100Z,95825.86
2018-09-14T20:03:18.595Z,95830.42
2018-09-14T20:05:47.123Z,95833.64
2018-09-14T20:08:15.654Z,95835.45
2018-09-14T20:10:44.209Z,95837.63
2018-09-14T20:13:12.752Z,95835.97
2018-09-14T20:15:43.240Z,95839.05
2018-09-14T20:18:11.823Z,95840.00
2018-09-14T20:20:40.320Z,95841.80
2018-09-14T20:23:08.852Z,95842.53
2018-09-14T20:25:38.315Z,95840.52
2018-09-14T20:28:07.892Z,95836.81
2018-09-14T20:30:36.462Z,95835.19
2018-09-14T20:33:04.949Z,95835.44
2018-09-14T20:35:34.395Z,95835.66
2018-09-14T20:38:02.956Z,95832.84
2018-09-14T20:40:31.485Z,95832.87
2018-09-14T20:43:00.024Z,95837.25
2018-09-14T20:45:30.591Z,95841.86
2018-09-14T20:47:59.131Z,95838.44
2018-09-14T20:50:32.485Z,95841.98
2018-09-14T20:53:01.026Z,95838.61
2018-09-14T20:55:30.565Z,95838.97
2018-09-14T20:58:00.074Z,95837.09
2018-09-14T21:00:28.601Z,95829.85
2018-09-14T21:02:58.102Z,95827.94
2018-09-14T21:05:26.632Z,95824.23
2018-09-14T21:07:57.096Z,95823.56
2018-09-14T21:10:25.615Z,95822.37
2018-09-14T21:12:54.160Z,95820.23
2018-09-14T21:15:22.705Z,95816.43
2018-09-14T21:17:51.242Z,95818.00
2018-09-14T21:20:19.870Z,95817.05
2018-09-14T21:22:48.558Z,95824.13
2018-09-14T21:25:17.026Z,95828.80
2018-09-14T21:27:45.563Z,95825.61
2018-09-14T21:30:14.094Z,95829.30
2018-09-14T21:32:42.637Z,95827.34
2018-09-14T21:35:11.220Z,95828.92
2018-09-14T21:37:39.718Z,95827.48
2018-09-14T21:40:08.255Z,95834.15
2018-09-14T21:42:40.821Z,95832.37
2018-09-14T21:45:09.352Z,95832.29
2018-09-14T21:47:45.552Z,95830.99
2018-09-14T21:50:14.092Z,95831.52
2018-09-14T21:52:42.676Z,95824.87
2018-09-14T21:55:11.232Z,95826.30
2018-09-14T21:57:39.781Z,95830.47
2018-09-14T22:00:09.318Z,95830.20
2018-09-14T22:02:37.861Z,95834.20
2018-09-14T22:05:07.292Z,95835.88
2018-09-14T22:07:35.826Z,95836.35
2018-09-14T22:10:05.296Z,95843.55
2018-09-14T22:12:33.823Z,95840.31
2018-09-14T22:15:04.342Z,95838.64
2018-09-14T22:17:32.870Z,95834.31
2018-09-14T22:20:01.409Z,95837.42
2018-09-14T22:22:29.985Z,95842.61
2018-09-14T22:24:58.550Z,95840.31
2018-09-14T22:27:27.088Z,95842.49
2018-09-14T22:29:55.620Z,95837.39
2018-09-14T22:32:24.148Z,95832.97
2018-09-14T22:34:56.705Z,95835.87
2018-09-14T22:37:25.238Z,95835.38
2018-09-14T22:39:53.782Z,95834.67
2018-09-14T22:42:22.311Z,95839.11
2018-09-14T22:44:50.881Z,95838.80
2018-09-14T22:47:20.352Z,95836.23
2018-09-14T22:49:50.024Z,95846.63
2018-09-14T22:52:18.570Z,95845.21
2018-09-14T22:54:47.095Z,95843.84
2018-09-14T22:57:15.654Z,95843.48
2018-09-14T22:59:44.181Z,95843.39
2018-09-14T23:02:12.727Z,95847.23
2018-09-14T23:04:41.246Z,95844.22
2018-09-14T23:07:09.799Z,95846.28
2018-09-14T23:09:38.327Z,95851.91
2018-09-14T23:12:06.855Z,95858.30
2018-09-14T23:14:35.419Z,95852.97
2018-09-14T23:17:03.975Z,95856.36
2018-09-14T23:19:33.619Z,95852.66
2018-09-14T23:22:02.111Z,95855.93
2018-09-14T23:24:30.643Z,95857.06
2018-09-14T23:26:59.179Z,95861.42
2018-09-14T23:29:27.713Z,95862.03
2018-09-14T23:31:56.303Z,95859.03
2018-09-14T23:34:25.743Z,95859.86
2018-09-14T23:36:54.295Z,95857.81
2018-09-14T23:39:27.758Z,95857.93
2018-09-14T23:41:56.291Z,95856.84
2018-09-14T23:44:24.828Z,95858.50
2018-09-14T23:46:54.354Z,95860.44
2018-09-14T23:49:22.876Z,95861.72
2018-09-14T23:51:51.435Z,95861.48
2018-09-14T23:54:19.964Z,95859.69
2018-09-14T23:56:51.887Z,95854.86
2018-09-14T23:59:22.473Z,95848.44
